sensor_id;sensor_type;location;lat;lon;timestamp;pressure;altitude;pressure_sealevel;temperature;humidity
44825;BME280;30542;47.928;2.138;2023-01-29T00:02:19;101761.56;;;19.65;43.56
44825;BME280;30542;47.928;2.138;2023-01-29T00:07:19;101764.06;;;19.60;43.73
44825;BME280;30542;47.928;2.138;2023-01-29T00:12:20;101750.66;;;19.48;43.82
44825;BME280;30542;47.928;2.138;2023-01-29T00:17:20;101755.78;;;19.50;43.49
44825;BME280;30542;47.928;2.138;2023-01-29T00:22:21;101758.91;;;19.47;43.84
44825;BME280;30542;47.928;2.138;2023-01-29T00:27:21;101761.81;;;19.45;43.67
44825;BME280;30542;47.928;2.138;2023-01-29T00:32:22;101775.00;;;19.40;43.87
44825;BME280;30542;47.928;2.138;2023-01-29T00:37:22;101772.56;;;19.38;44.00
44825;BME280;30542;47.928;2.138;2023-01-29T00:42:22;101766.91;;;19.28;44.06
44825;BME280;30542;47.928;2.138;2023-01-29T00:47:41;101788.09;;;19.30;43.84
44825;BME280;30542;47.928;2.138;2023-01-29T00:52:42;101774.59;;;19.25;43.56
44825;BME280;30542;47.928;2.138;2023-01-29T00:57:42;101773.59;;;19.19;43.95
44825;BME280;30542;47.928;2.138;2023-01-29T01:02:43;101780.66;;;19.13;43.88
44825;BME280;30542;47.928;2.138;2023-01-29T01:08:01;101795.25;;;19.11;44.13
44825;BME280;30542;47.928;2.138;2023-01-29T01:13:04;101788.53;;;19.08;44.00
44825;BME280;30542;47.928;2.138;2023-01-29T01:18:05;101782.81;;;19.05;43.54
44825;BME280;30542;47.928;2.138;2023-01-29T01:23:06;101776.94;;;18.96;43.95
44825;BME280;30542;47.928;2.138;2023-01-29T01:28:07;101771.16;;;18.99;43.66
44825;BME280;30542;47.928;2.138;2023-01-29T01:33:08;101773.66;;;18.94;44.04
44825;BME280;30542;47.928;2.138;2023-01-29T01:38:08;101775.16;;;18.90;43.94
44825;BME280;30542;47.928;2.138;2023-01-29T01:43:09;101768.47;;;18.81;43.73
44825;BME280;30542;47.928;2.138;2023-01-29T01:48:19;101772.75;;;18.82;43.49
44825;BME280;30542;47.928;2.138;2023-01-29T01:53:27;101783.06;;;18.78;43.44
44825;BME280;30542;47.928;2.138;2023-01-29T01:58:32;101777.38;;;18.75;43.73
44825;BME280;30542;47.928;2.138;2023-01-29T02:03:46;101770.19;;;18.69;43.62
44825;BME280;30542;47.928;2.138;2023-01-29T02:09:13;101761.22;;;18.63;43.42
44825;BME280;30542;47.928;2.138;2023-01-29T02:14:33;101773.75;;;18.62;43.49
44825;BME280;30542;47.928;2.138;2023-01-29T02:30:20;101784.50;;;18.49;43.45
44825;BME280;30542;47.928;2.138;2023-01-29T02:45:53;101793.16;;;18.45;43.24
44825;BME280;30542;47.928;2.138;2023-01-29T02:51:22;101783.31;;;18.45;43.32
44825;BME280;30542;47.928;2.138;2023-01-29T02:56:28;101788.22;;;18.48;43.53
44825;BME280;30542;47.928;2.138;2023-01-29T03:01:51;101796.13;;;18.61;43.42
44825;BME280;30542;47.928;2.138;2023-01-29T03:06:57;101787.88;;;18.70;43.03
44825;BME280;30542;47.928;2.138;2023-01-29T03:12:05;101798.50;;;18.76;43.36
44825;BME280;30542;47.928;2.138;2023-01-29T03:17:21;101793.31;;;18.81;43.24
44825;BME280;30542;47.928;2.138;2023-01-29T03:22:23;101764.59;;;18.77;42.69
44825;BME280;30542;47.928;2.138;2023-01-29T03:27:30;101773.53;;;18.89;42.89
44825;BME280;30542;47.928;2.138;2023-01-29T03:32:50;101763.28;;;18.86;42.72
44825;BME280;30542;47.928;2.138;2023-01-29T03:37:53;101778.34;;;18.99;42.63
44825;BME280;30542;47.928;2.138;2023-01-29T03:43:08;101758.63;;;19.00;42.22
44825;BME280;30542;47.928;2.138;2023-01-29T03:48:17;101761.03;;;19.08;42.06
44825;BME280;30542;47.928;2.138;2023-01-29T03:53:40;101763.38;;;19.16;42.01
44825;BME280;30542;47.928;2.138;2023-01-29T03:58:51;101769.25;;;19.25;41.98
44825;BME280;30542;47.928;2.138;2023-01-29T04:03:59;101767.28;;;19.32;41.46
44825;BME280;30542;47.928;2.138;2023-01-29T04:14:07;101759.47;;;19.49;41.17
44825;BME280;30542;47.928;2.138;2023-01-29T04:19:08;101740.44;;;19.45;40.81
44825;BME280;30542;47.928;2.138;2023-01-29T04:24:10;101757.88;;;19.66;40.39
44825;BME280;30542;47.928;2.138;2023-01-29T04:34:59;101759.31;;;19.80;40.46
44825;BME280;30542;47.928;2.138;2023-01-29T04:57:04;101761.81;;;20.05;39.69
44825;BME280;30542;47.928;2.138;2023-01-29T05:02:08;101772.06;;;20.08;39.65
44825;BME280;30542;47.928;2.138;2023-01-29T05:07:12;101780.47;;;20.12;39.79
44825;BME280;30542;47.928;2.138;2023-01-29T05:12:14;101775.47;;;20.16;39.59
44825;BME280;30542;47.928;2.138;2023-01-29T05:17:18;101755.22;;;20.08;39.82
44825;BME280;30542;47.928;2.138;2023-01-29T05:22:19;101773.72;;;20.21;39.35
44825;BME280;30542;47.928;2.138;2023-01-29T05:27:28;101776.75;;;20.25;39.23
44825;BME280;30542;47.928;2.138;2023-01-29T05:32:49;101769.78;;;20.24;39.50
44825;BME280;30542;47.928;2.138;2023-01-29T05:37:49;101768.25;;;20.28;39.17
44825;BME280;30542;47.928;2.138;2023-01-29T05:42:50;101768.25;;;20.28;39.16
44825;BME280;30542;47.928;2.138;2023-01-29T05:47:54;101770.47;;;20.31;38.94
44825;BME280;30542;47.928;2.138;2023-01-29T05:52:59;101763.06;;;20.33;39.00
44825;BME280;30542;47.928;2.138;2023-01-29T05:58:00;101776.44;;;20.33;38.90
44825;BME280;30542;47.928;2.138;2023-01-29T06:03:00;101785.47;;;20.32;38.94
44825;BME280;30542;47.928;2.138;2023-01-29T06:08:01;101786.53;;;20.31;38.97
44825;BME280;30542;47.928;2.138;2023-01-29T06:13:02;101790.25;;;20.30;38.96
44825;BME280;30542;47.928;2.138;2023-01-29T06:18:02;101791.88;;;20.31;38.71
44825;BME280;30542;47.928;2.138;2023-01-29T06:23:02;101792.25;;;20.34;38.82
44825;BME280;30542;47.928;2.138;2023-01-29T06:28:03;101796.78;;;20.34;38.84
44825;BME280;30542;47.928;2.138;2023-01-29T06:33:03;101810.28;;;20.39;38.76
44825;BME280;30542;47.928;2.138;2023-01-29T06:38:04;101809.03;;;20.42;38.64
44825;BME280;30542;47.928;2.138;2023-01-29T06:43:04;101811.91;;;20.40;38.37
44825;BME280;30542;47.928;2.138;2023-01-29T06:48:05;101797.16;;;20.38;38.63
44825;BME280;30542;47.928;2.138;2023-01-29T06:53:05;101816.34;;;20.46;38.34
44825;BME280;30542;47.928;2.138;2023-01-29T06:58:10;101814.28;;;20.48;38.33
44825;BME280;30542;47.928;2.138;2023-01-29T07:03:11;101813.06;;;20.44;38.43
44825;BME280;30542;47.928;2.138;2023-01-29T07:08:11;101835.09;;;20.46;38.50
44825;BME280;30542;47.928;2.138;2023-01-29T07:13:12;101833.63;;;20.50;38.10
44825;BME280;30542;47.928;2.138;2023-01-29T07:18:12;101843.28;;;20.51;38.47
44825;BME280;30542;47.928;2.138;2023-01-29T07:23:13;101857.47;;;20.52;38.20
44825;BME280;30542;47.928;2.138;2023-01-29T07:28:13;101862.59;;;20.53;38.55
44825;BME280;30542;47.928;2.138;2023-01-29T07:33:14;101855.31;;;20.42;38.28
44825;BME280;30542;47.928;2.138;2023-01-29T07:38:14;101855.03;;;20.50;37.80
44825;BME280;30542;47.928;2.138;2023-01-29T07:43:14;101864.69;;;20.51;37.92
44825;BME280;30542;47.928;2.138;2023-01-29T07:48:15;101866.91;;;20.54;38.19
44825;BME280;30542;47.928;2.138;2023-01-29T07:53:16;101872.84;;;20.56;38.19
44825;BME280;30542;47.928;2.138;2023-01-29T07:58:16;101870.16;;;20.56;38.44
44825;BME280;30542;47.928;2.138;2023-01-29T08:03:17;101872.03;;;20.56;38.48
44825;BME280;30542;47.928;2.138;2023-01-29T08:08:19;101864.47;;;20.53;38.47
44825;BME280;30542;47.928;2.138;2023-01-29T08:13:19;101868.78;;;20.54;38.52
44825;BME280;30542;47.928;2.138;2023-01-29T08:18:20;101864.22;;;20.54;38.54
44825;BME280;30542;47.928;2.138;2023-01-29T08:23:20;101866.09;;;20.54;38.48
44825;BME280;30542;47.928;2.138;2023-01-29T08:28:20;101876.00;;;20.53;38.54
44825;BME280;30542;47.928;2.138;2023-01-29T08:33:21;101865.34;;;20.47;38.48
44825;BME280;30542;47.928;2.138;2023-01-29T08:38:21;101867.97;;;20.53;38.73
44825;BME280;30542;47.928;2.138;2023-01-29T08:43:21;101873.53;;;20.52;38.69
44825;BME280;30542;47.928;2.138;2023-01-29T08:48:22;101863.63;;;20.52;38.59
44825;BME280;30542;47.928;2.138;2023-01-29T08:53:23;101863.19;;;20.55;38.94
44825;BME280;30542;47.928;2.138;2023-01-29T08:58:23;101866.47;;;20.57;38.62
44825;BME280;30542;47.928;2.138;2023-01-29T09:03:24;101865.97;;;20.60;39.39
44825;BME280;30542;47.928;2.138;2023-01-29T09:08:24;101867.97;;;20.65;39.64
44825;BME280;30542;47.928;2.138;2023-01-29T09:13:25;101860.44;;;20.74;39.19
44825;BME280;30542;47.928;2.138;2023-01-29T09:18:26;101862.41;;;20.78;39.17
44825;BME280;30542;47.928;2.138;2023-01-29T09:23:28;101859.50;;;20.80;38.97
44825;BME280;30542;47.928;2.138;2023-01-29T09:28:29;101858.69;;;20.79;39.22
44825;BME280;30542;47.928;2.138;2023-01-29T09:33:29;101836.91;;;20.76;39.31
44825;BME280;30542;47.928;2.138;2023-01-29T09:38:30;101854.13;;;20.80;39.67
44825;BME280;30542;47.928;2.138;2023-01-29T09:43:53;101859.13;;;20.76;39.87
44825;BME280;30542;47.928;2.138;2023-01-29T09:49:00;101867.53;;;20.80;40.75
44825;BME280;30542;47.928;2.138;2023-01-29T09:59:04;101874.16;;;20.77;41.68
44825;BME280;30542;47.928;2.138;2023-01-29T10:09:55;101871.00;;;20.69;41.73
44825;BME280;30542;47.928;2.138;2023-01-29T10:15:12;101866.56;;;20.63;41.60
44825;BME280;30542;47.928;2.138;2023-01-29T10:25:26;101860.75;;;20.54;39.84
44825;BME280;30542;47.928;2.138;2023-01-29T10:35:33;101871.50;;;20.47;40.24
44825;BME280;30542;47.928;2.138;2023-01-29T10:57:05;101849.47;;;20.64;41.46
44825;BME280;30542;47.928;2.138;2023-01-29T11:02:17;101826.88;;;20.71;40.59
44825;BME280;30542;47.928;2.138;2023-01-29T11:07:21;101817.91;;;20.77;40.38
44825;BME280;30542;47.928;2.138;2023-01-29T11:12:26;101815.72;;;20.86;41.16
44825;BME280;30542;47.928;2.138;2023-01-29T11:17:29;101807.66;;;20.98;42.07
44825;BME280;30542;47.928;2.138;2023-01-29T11:22:30;101793.34;;;21.04;42.37
44825;BME280;30542;47.928;2.138;2023-01-29T11:27:32;101791.03;;;21.07;42.77
44825;BME280;30542;47.928;2.138;2023-01-29T11:32:34;101795.88;;;21.10;43.01
44825;BME280;30542;47.928;2.138;2023-01-29T11:37:39;101794.06;;;21.11;43.29
44825;BME280;30542;47.928;2.138;2023-01-29T11:42:40;101785.75;;;21.13;43.50
44825;BME280;30542;47.928;2.138;2023-01-29T11:47:40;101772.13;;;21.14;43.70
44825;BME280;30542;47.928;2.138;2023-01-29T11:52:42;101763.28;;;21.14;43.72
44825;BME280;30542;47.928;2.138;2023-01-29T11:57:46;101757.91;;;21.14;43.87
44825;BME280;30542;47.928;2.138;2023-01-29T12:02:55;101764.91;;;21.15;43.82
44825;BME280;30542;47.928;2.138;2023-01-29T12:07:58;101765.75;;;21.15;44.08
44825;BME280;30542;47.928;2.138;2023-01-29T12:13:08;101760.38;;;21.15;44.06
44825;BME280;30542;47.928;2.138;2023-01-29T12:24:00;101748.69;;;21.21;44.94
44825;BME280;30542;47.928;2.138;2023-01-29T12:29:18;101742.53;;;21.21;45.21
44825;BME280;30542;47.928;2.138;2023-01-29T12:39:44;101731.47;;;21.17;45.06
44825;BME280;30542;47.928;2.138;2023-01-29T12:44:49;101717.72;;;21.14;45.20
44825;BME280;30542;47.928;2.138;2023-01-29T12:49:54;101713.69;;;21.11;44.85
44825;BME280;30542;47.928;2.138;2023-01-29T13:00:17;101700.97;;;21.06;45.41
44825;BME280;30542;47.928;2.138;2023-01-29T13:05:38;101678.28;;;20.97;45.40
44825;BME280;30542;47.928;2.138;2023-01-29T13:10:44;101698.78;;;21.03;45.49
44825;BME280;30542;47.928;2.138;2023-01-29T13:15:47;101682.50;;;20.93;45.29
44825;BME280;30542;47.928;2.138;2023-01-29T13:20:48;101694.34;;;20.97;45.42
44825;BME280;30542;47.928;2.138;2023-01-29T13:25:52;101682.38;;;20.88;45.46
44825;BME280;30542;47.928;2.138;2023-01-29T13:36:18;101691.03;;;20.90;45.45
44825;BME280;30542;47.928;2.138;2023-01-29T13:41:30;101675.16;;;20.89;45.50
44825;BME280;30542;47.928;2.138;2023-01-29T13:46:32;101681.59;;;20.88;45.48
44825;BME280;30542;47.928;2.138;2023-01-29T13:51:34;101684.72;;;20.84;45.54
44825;BME280;30542;47.928;2.138;2023-01-29T14:06:53;101656.34;;;20.72;45.65
44825;BME280;30542;47.928;2.138;2023-01-29T14:11:53;101660.19;;;20.76;45.29
44825;BME280;30542;47.928;2.138;2023-01-29T14:16:59;101653.19;;;20.75;45.65
44825;BME280;30542;47.928;2.138;2023-01-29T14:22:01;101647.84;;;20.75;45.50
44825;BME280;30542;47.928;2.138;2023-01-29T14:27:01;101645.38;;;20.73;45.36
44825;BME280;30542;47.928;2.138;2023-01-29T14:52:32;101633.78;;;20.68;44.94
44825;BME280;30542;47.928;2.138;2023-01-29T14:57:35;101622.59;;;20.71;44.80
44825;BME280;30542;47.928;2.138;2023-01-29T15:02:40;101615.13;;;20.73;44.94
44825;BME280;30542;47.928;2.138;2023-01-29T15:07:57;101602.69;;;20.67;45.03
44825;BME280;30542;47.928;2.138;2023-01-29T15:13:11;101607.34;;;20.71;44.82
44825;BME280;30542;47.928;2.138;2023-01-29T15:18:18;101600.13;;;20.72;44.69
44825;BME280;30542;47.928;2.138;2023-01-29T15:23:31;101597.69;;;20.70;45.00
44825;BME280;30542;47.928;2.138;2023-01-29T15:28:33;101598.97;;;20.68;44.71
44825;BME280;30542;47.928;2.138;2023-01-29T15:33:35;101594.56;;;20.62;43.95
44825;BME280;30542;47.928;2.138;2023-01-29T15:38:37;101593.97;;;20.59;44.23
44825;BME280;30542;47.928;2.138;2023-01-29T15:43:42;101586.66;;;20.43;44.71
44825;BME280;30542;47.928;2.138;2023-01-29T15:48:44;101598.88;;;20.51;45.42
44825;BME280;30542;47.928;2.138;2023-01-29T15:58:54;101603.88;;;20.47;45.54
44825;BME280;30542;47.928;2.138;2023-01-29T16:03:57;101615.38;;;20.48;45.52
44825;BME280;30542;47.928;2.138;2023-01-29T16:09:03;101607.25;;;20.43;45.77
44825;BME280;30542;47.928;2.138;2023-01-29T16:14:04;101611.34;;;20.45;45.66
44825;BME280;30542;47.928;2.138;2023-01-29T16:19:33;101628.41;;;20.44;45.74
44825;BME280;30542;47.928;2.138;2023-01-29T16:24:34;101638.09;;;20.45;45.58
44825;BME280;30542;47.928;2.138;2023-01-29T16:29:36;101642.63;;;20.45;45.25
44825;BME280;30542;47.928;2.138;2023-01-29T16:34:40;101642.63;;;20.45;45.32
44825;BME280;30542;47.928;2.138;2023-01-29T16:39:46;101626.34;;;20.34;45.15
44825;BME280;30542;47.928;2.138;2023-01-29T16:45:00;101656.59;;;20.47;45.03
44825;BME280;30542;47.928;2.138;2023-01-29T16:55:19;101672.63;;;20.47;44.62
44825;BME280;30542;47.928;2.138;2023-01-29T17:00:23;101668.91;;;20.48;44.69
44825;BME280;30542;47.928;2.138;2023-01-29T17:05:30;101667.91;;;20.49;44.09
44825;BME280;30542;47.928;2.138;2023-01-29T17:10:31;101671.41;;;20.49;43.90
44825;BME280;30542;47.928;2.138;2023-01-29T17:20:45;101677.91;;;20.53;43.72
44825;BME280;30542;47.928;2.138;2023-01-29T17:25:46;101677.66;;;20.55;43.54
44825;BME280;30542;47.928;2.138;2023-01-29T17:30:47;101679.53;;;20.54;43.47
44825;BME280;30542;47.928;2.138;2023-01-29T17:35:48;101684.09;;;20.54;43.31
44825;BME280;30542;47.928;2.138;2023-01-29T17:40:58;101681.41;;;20.54;43.01
44825;BME280;30542;47.928;2.138;2023-01-29T17:46:00;101685.00;;;20.59;43.19
44825;BME280;30542;47.928;2.138;2023-01-29T17:51:02;101678.59;;;20.60;43.27
44825;BME280;30542;47.928;2.138;2023-01-29T17:56:03;101674.19;;;20.54;43.16
44825;BME280;30542;47.928;2.138;2023-01-29T18:01:04;101684.75;;;20.61;43.16
44825;BME280;30542;47.928;2.138;2023-01-29T18:06:08;101695.47;;;20.61;43.10
44825;BME280;30542;47.928;2.138;2023-01-29T18:11:11;101691.75;;;20.62;43.12
44825;BME280;30542;47.928;2.138;2023-01-29T18:16:11;101704.53;;;20.60;42.84
44825;BME280;30542;47.928;2.138;2023-01-29T18:21:12;101695.00;;;20.52;43.02
44825;BME280;30542;47.928;2.138;2023-01-29T18:26:15;101716.66;;;20.63;42.80
44825;BME280;30542;47.928;2.138;2023-01-29T18:31:15;101707.81;;;20.62;42.73
44825;BME280;30542;47.928;2.138;2023-01-29T18:36:15;101707.00;;;20.62;42.56
44825;BME280;30542;47.928;2.138;2023-01-29T18:41:16;101705.13;;;20.62;42.67
44825;BME280;30542;47.928;2.138;2023-01-29T18:46:17;101674.66;;;20.51;42.60
44825;BME280;30542;47.928;2.138;2023-01-29T18:51:17;101688.84;;;20.64;42.52
44825;BME280;30542;47.928;2.138;2023-01-29T18:56:18;101678.13;;;20.64;42.40
44825;BME280;30542;47.928;2.138;2023-01-29T19:01:19;101671.25;;;20.68;42.22
44825;BME280;30542;47.928;2.138;2023-01-29T19:06:19;101660.44;;;20.63;42.40
44825;BME280;30542;47.928;2.138;2023-01-29T19:11:19;101676.03;;;20.66;42.14
44825;BME280;30542;47.928;2.138;2023-01-29T19:16:20;101680.34;;;20.67;42.07
44825;BME280;30542;47.928;2.138;2023-01-29T19:21:20;101679.28;;;20.68;42.07
44825;BME280;30542;47.928;2.138;2023-01-29T19:26:21;101668.00;;;20.66;42.08
44825;BME280;30542;47.928;2.138;2023-01-29T19:31:21;101671.25;;;20.68;41.90
44825;BME280;30542;47.928;2.138;2023-01-29T19:36:22;101663.22;;;20.68;41.97
44825;BME280;30542;47.928;2.138;2023-01-29T19:41:22;101657.06;;;20.67;42.02
44825;BME280;30542;47.928;2.138;2023-01-29T19:46:22;101653.31;;;20.68;41.88
44825;BME280;30542;47.928;2.138;2023-01-29T19:51:23;101650.44;;;20.70;41.71
44825;BME280;30542;47.928;2.138;2023-01-29T19:56:23;101639.13;;;20.68;41.53
44825;BME280;30542;47.928;2.138;2023-01-29T20:01:24;101646.34;;;20.67;41.47
44825;BME280;30542;47.928;2.138;2023-01-29T20:06:26;101642.84;;;20.67;41.46
44825;BME280;30542;47.928;2.138;2023-01-29T20:11:28;101641.00;;;20.67;41.66
44825;BME280;30542;47.928;2.138;2023-01-29T20:16:28;101641.81;;;20.68;41.45
44825;BME280;30542;47.928;2.138;2023-01-29T20:21:29;101629.69;;;20.65;41.55
44825;BME280;30542;47.928;2.138;2023-01-29T20:26:29;101632.06;;;20.62;41.36
44825;BME280;30542;47.928;2.138;2023-01-29T20:31:29;101627.00;;;20.65;41.35
44825;BME280;30542;47.928;2.138;2023-01-29T20:36:30;101613.88;;;20.64;41.27
44825;BME280;30542;47.928;2.138;2023-01-29T20:41:30;101628.31;;;20.63;41.20
44825;BME280;30542;47.928;2.138;2023-01-29T20:46:31;101627.50;;;20.62;41.41
44825;BME280;30542;47.928;2.138;2023-01-29T20:51:31;101619.47;;;20.62;41.30
44825;BME280;30542;47.928;2.138;2023-01-29T20:56:32;101606.09;;;20.62;41.12
44825;BME280;30542;47.928;2.138;2023-01-29T21:01:34;101614.94;;;20.63;41.15
44825;BME280;30542;47.928;2.138;2023-01-29T21:06:34;101619.47;;;20.62;41.25
44825;BME280;30542;47.928;2.138;2023-01-29T21:11:35;101613.53;;;20.60;41.02
44825;BME280;30542;47.928;2.138;2023-01-29T21:16:35;101623.78;;;20.63;40.90
44825;BME280;30542;47.928;2.138;2023-01-29T21:21:35;101611.19;;;20.64;40.77
44825;BME280;30542;47.928;2.138;2023-01-29T21:26:36;101610.94;;;20.65;40.69
44825;BME280;30542;47.928;2.138;2023-01-29T21:31:37;101618.16;;;20.65;40.86
44825;BME280;30542;47.928;2.138;2023-01-29T21:36:38;101613.88;;;20.64;40.77
44825;BME280;30542;47.928;2.138;2023-01-29T21:41:38;101613.06;;;20.63;40.91
44825;BME280;30542;47.928;2.138;2023-01-29T21:46:57;101625.63;;;20.63;40.66
44825;BME280;30542;47.928;2.138;2023-01-29T21:51:57;101632.84;;;20.62;40.53
44825;BME280;30542;47.928;2.138;2023-01-29T21:56:58;101624.25;;;20.60;40.57
44825;BME280;30542;47.928;2.138;2023-01-29T22:01:58;101627.72;;;20.60;40.73
44825;BME280;30542;47.928;2.138;2023-01-29T22:06:59;101628.44;;;20.56;40.63
44825;BME280;30542;47.928;2.138;2023-01-29T22:11:59;101639.03;;;20.63;40.56
44825;BME280;30542;47.928;2.138;2023-01-29T22:17:00;101646.25;;;20.62;40.70
44825;BME280;30542;47.928;2.138;2023-01-29T22:22:00;101627.16;;;20.58;40.73
44825;BME280;30542;47.928;2.138;2023-01-29T22:27:00;101632.63;;;20.52;40.61
44825;BME280;30542;47.928;2.138;2023-01-29T22:32:01;101635.88;;;20.42;40.73
44825;BME280;30542;47.928;2.138;2023-01-29T22:37:01;101635.44;;;20.33;40.95
44825;BME280;30542;47.928;2.138;2023-01-29T22:42:01;101637.16;;;20.28;40.98
44825;BME280;30542;47.928;2.138;2023-01-29T22:47:02;101624.25;;;20.25;41.09
44825;BME280;30542;47.928;2.138;2023-01-29T22:52:02;101617.16;;;20.19;40.81
44825;BME280;30542;47.928;2.138;2023-01-29T22:57:13;101606.34;;;20.14;40.75
44825;BME280;30542;47.928;2.138;2023-01-29T23:02:14;101599.28;;;20.07;41.01
44825;BME280;30542;47.928;2.138;2023-01-29T23:07:14;101599.94;;;20.03;40.85
44825;BME280;30542;47.928;2.138;2023-01-29T23:12:15;101591.81;;;19.98;41.00
44825;BME280;30542;47.928;2.138;2023-01-29T23:17:15;101598.66;;;19.94;40.63
44825;BME280;30542;47.928;2.138;2023-01-29T23:22:15;101589.59;;;19.83;40.59
44825;BME280;30542;47.928;2.138;2023-01-29T23:27:16;101608.31;;;19.83;40.80
44825;BME280;30542;47.928;2.138;2023-01-29T23:32:18;101604.69;;;19.77;40.57
44825;BME280;30542;47.928;2.138;2023-01-29T23:37:19;101602.50;;;19.74;40.99
44825;BME280;30542;47.928;2.138;2023-01-29T23:42:19;101602.47;;;19.63;40.83
44825;BME280;30542;47.928;2.138;2023-01-29T23:47:19;101615.53;;;19.52;40.78
44825;BME280;30542;47.928;2.138;2023-01-29T23:52:20;101648.56;;;19.58;40.96
44825;BME280;30542;47.928;2.138;2023-01-29T23:57:20;101628.91;;;19.52;40.89
